createdAt,value
2022-11-16T00:00:36.620Z,0.60
2022-11-16T00:03:03.936Z,0.90
2022-11-16T00:05:30.367Z,0.70
2022-11-16T00:08:00.665Z,1.30
2022-11-16T00:10:27.054Z,1.00
2022-11-16T00:12:53.455Z,0.50
2022-11-16T00:15:19.826Z,0.38
2022-11-16T00:17:46.180Z,1.17
2022-11-16T00:20:12.605Z,1.17
2022-11-16T00:22:39.020Z,0.50
2022-11-16T00:25:05.701Z,0.30
2022-11-16T00:27:32.055Z,0.30
2022-11-16T00:29:58.498Z,0.45
2022-11-16T00:32:24.899Z,0.50
2022-11-16T00:34:51.261Z,0.60
2022-11-16T00:37:17.603Z,0.60
2022-11-16T00:39:43.926Z,0.30
2022-11-16T00:42:10.248Z,0.40
2022-11-16T00:44:36.600Z,0.30
2022-11-16T00:47:02.963Z,0.30
2022-11-16T00:49:32.516Z,0.40
2022-11-16T00:51:58.861Z,0.45
2022-11-16T00:54:25.415Z,0.47
2022-11-16T00:56:51.763Z,0.40
2022-11-16T00:59:18.097Z,0.40
2022-11-16T01:01:44.491Z,0.30
2022-11-16T01:04:10.972Z,0.40
2022-11-16T01:06:39.348Z,0.30
2022-11-16T01:09:05.759Z,0.30
2022-11-16T01:11:50.814Z,0.30
2022-11-16T01:14:17.173Z,0.40
2022-11-16T01:16:43.508Z,0.45
2022-11-16T01:19:09.861Z,1.10
2022-11-16T01:21:36.230Z,0.30
2022-11-16T01:24:02.649Z,0.40
2022-11-16T01:26:29.151Z,0.40
2022-11-16T01:28:55.611Z,0.30
2022-11-16T01:31:21.947Z,0.40
2022-11-16T01:33:48.288Z,0.28
2022-11-16T01:36:15.100Z,0.63
2022-11-16T01:38:45.750Z,0.40
2022-11-16T01:41:20.064Z,0.47
2022-11-16T01:43:49.416Z,0.40
2022-11-16T01:46:15.770Z,0.40
2022-11-16T01:48:42.259Z,0.40
2022-11-16T01:51:09.313Z,0.30
2022-11-16T01:53:36.392Z,0.40
2022-11-16T01:56:02.763Z,0.20
2022-11-16T01:58:29.260Z,0.32
2022-11-16T02:00:55.669Z,0.30
2022-11-16T02:03:22.089Z,0.38
2022-11-16T02:06:18.120Z,0.50
2022-11-16T02:09:22.257Z,0.38
2022-11-16T02:11:54.525Z,0.30
2022-11-16T02:14:39.155Z,0.38
2022-11-16T02:17:10.698Z,0.30
2022-11-16T02:19:53.972Z,0.30
2022-11-16T02:22:38.922Z,0.30
2022-11-16T02:25:14.702Z,0.38
2022-11-16T02:27:41.017Z,0.40
2022-11-16T02:30:09.104Z,0.30
2022-11-16T02:32:41.729Z,0.30
2022-11-16T02:35:13.244Z,0.30
2022-11-16T02:37:44.005Z,0.30
2022-11-16T02:40:11.645Z,0.30
2022-11-16T02:42:51.138Z,0.35
2022-11-16T02:45:20.380Z,0.40
2022-11-16T02:47:47.666Z,0.30
2022-11-16T02:50:16.399Z,0.30
2022-11-16T02:52:42.736Z,0.32
2022-11-16T02:55:09.086Z,0.38
2022-11-16T02:57:38.578Z,0.30
2022-11-16T03:00:08.313Z,0.20
2022-11-16T03:02:46.974Z,0.30
2022-11-16T03:05:32.410Z,0.30
2022-11-16T03:08:08.106Z,0.20
2022-11-16T03:10:55.489Z,0.20
2022-11-16T03:13:23.169Z,0.30
2022-11-16T03:15:49.875Z,0.40
2022-11-16T03:18:16.646Z,0.47
2022-11-16T03:20:43.891Z,0.28
2022-11-16T03:23:11.385Z,0.40
2022-11-16T03:25:40.937Z,0.40
2022-11-16T03:28:10.073Z,0.20
2022-11-16T03:30:56.776Z,0.20
2022-11-16T03:33:27.509Z,0.47
2022-11-16T03:36:13.065Z,0.30
2022-11-16T03:38:40.766Z,0.30
2022-11-16T03:41:08.389Z,0.20
2022-11-16T03:43:35.028Z,0.30
2022-11-16T03:46:01.510Z,0.30
2022-11-16T03:48:35.775Z,0.40
2022-11-16T03:51:03.433Z,0.30
2022-11-16T03:53:29.912Z,0.30
2022-11-16T03:55:56.292Z,0.30
2022-11-16T03:58:24.795Z,0.30
2022-11-16T04:00:51.164Z,0.40
2022-11-16T04:03:17.584Z,0.20
2022-11-16T04:06:02.875Z,0.20
2022-11-16T04:08:47.810Z,0.35
2022-11-16T04:11:33.056Z,1.25
2022-11-16T04:14:17.962Z,0.30
2022-11-16T04:17:02.840Z,0.52
2022-11-16T04:19:47.716Z,0.30
2022-11-16T04:22:35.589Z,0.30
2022-11-16T04:25:07.125Z,0.30
2022-11-16T04:27:52.236Z,0.35
2022-11-16T04:30:18.815Z,0.40
2022-11-16T04:33:06.912Z,0.30
2022-11-16T04:35:51.759Z,0.20
2022-11-16T04:38:18.132Z,0.20
2022-11-16T04:40:44.512Z,0.40
2022-11-16T04:43:10.952Z,0.30
2022-11-16T04:45:59.149Z,0.30
2022-11-16T04:48:25.497Z,0.20
2022-11-16T04:50:51.953Z,0.35
2022-11-16T04:53:18.385Z,0.30
2022-11-16T04:55:50.592Z,0.85
2022-11-16T04:58:16.937Z,0.30
2022-11-16T05:00:43.263Z,0.30
2022-11-16T05:03:09.615Z,0.25
2022-11-16T05:05:36.466Z,0.30
2022-11-16T05:08:02.804Z,0.30
2022-11-16T05:10:29.319Z,0.40
2022-11-16T05:12:55.751Z,0.40
2022-11-16T05:15:22.399Z,0.40
2022-11-16T05:17:48.985Z,0.45
2022-11-16T05:20:34.010Z,0.40
2022-11-16T05:23:00.374Z,0.40
2022-11-16T05:25:26.870Z,0.50
2022-11-16T05:27:53.556Z,0.30
2022-11-16T05:30:20.392Z,0.30
2022-11-16T05:32:46.802Z,0.28
2022-11-16T05:35:13.194Z,0.28
2022-11-16T05:37:39.579Z,0.30
2022-11-16T05:40:06.346Z,0.30
2022-11-16T05:42:32.702Z,0.30
2022-11-16T05:44:59.081Z,0.40
2022-11-16T05:47:25.479Z,0.25
2022-11-16T05:49:51.886Z,0.40
2022-11-16T05:52:18.313Z,0.30
2022-11-16T05:54:45.425Z,0.30
2022-11-16T05:57:15.378Z,0.40
2022-11-16T05:59:42.441Z,0.30
2022-11-16T06:02:08.776Z,0.35
2022-11-16T06:04:35.124Z,0.30
2022-11-16T06:07:01.633Z,0.40
2022-11-16T06:09:27.994Z,0.40
2022-11-16T06:11:54.363Z,0.35
2022-11-16T06:14:22.806Z,0.30
2022-11-16T06:16:49.143Z,0.35
2022-11-16T06:19:15.616Z,0.40
2022-11-16T06:21:42.103Z,0.60
2022-11-16T06:24:09.489Z,0.43
2022-11-16T06:26:36.600Z,0.40
2022-11-16T06:29:03.612Z,0.40
2022-11-16T06:31:30.270Z,0.50
2022-11-16T06:33:56.605Z,0.30
2022-11-16T06:36:23.079Z,0.40
2022-11-16T06:38:49.463Z,0.50
2022-11-16T06:41:15.810Z,0.28
2022-11-16T06:43:42.248Z,0.25
2022-11-16T06:46:08.732Z,0.30
2022-11-16T06:48:35.536Z,0.40
2022-11-16T06:51:02.277Z,0.40
2022-11-16T06:53:29.590Z,0.38
2022-11-16T06:56:00.620Z,0.60
2022-11-16T07:00:53.205Z,0.30
2022-11-16T07:03:19.705Z,0.28
2022-11-16T07:05:46.052Z,0.40
2022-11-16T07:08:12.443Z,0.20
2022-11-16T07:10:38.838Z,0.32
2022-11-16T07:13:05.420Z,0.30
2022-11-16T07:15:32.131Z,0.30
2022-11-16T07:18:03.046Z,0.68
2022-11-16T07:22:55.677Z,0.25
2022-11-16T07:25:22.032Z,0.30
2022-11-16T07:27:48.524Z,0.57
2022-11-16T07:30:18.836Z,0.50
2022-11-16T07:32:45.197Z,0.30
2022-11-16T07:35:11.587Z,0.30
2022-11-16T07:37:37.919Z,0.35
2022-11-16T07:40:04.490Z,0.40
2022-11-16T07:42:30.887Z,0.32
2022-11-16T07:44:57.221Z,0.40
2022-11-16T07:47:25.966Z,0.30
2022-11-16T07:49:52.307Z,0.47
2022-11-16T07:52:18.654Z,0.50
2022-11-16T07:54:45.172Z,0.30
2022-11-16T07:57:11.589Z,0.40
2022-11-16T07:59:37.931Z,0.40
2022-11-16T08:02:04.329Z,0.52
2022-11-16T08:04:30.738Z,0.30
2022-11-16T08:06:57.313Z,0.30
2022-11-16T08:09:23.750Z,0.30
2022-11-16T08:11:51.325Z,0.30
2022-11-16T08:14:19.197Z,0.20
2022-11-16T08:16:45.734Z,0.30
2022-11-16T08:19:12.107Z,0.30
2022-11-16T08:21:38.687Z,0.40
2022-11-16T08:24:05.133Z,0.30
2022-11-16T08:26:31.485Z,0.30
2022-11-16T08:29:00.956Z,0.20
2022-11-16T08:31:28.601Z,0.35
2022-11-16T08:33:56.498Z,0.43
2022-11-16T08:36:23.078Z,0.30
2022-11-16T08:38:50.301Z,0.25
2022-11-16T08:41:17.462Z,0.28
2022-11-16T08:43:44.659Z,0.30
2022-11-16T08:46:11.437Z,0.28
2022-11-16T08:48:38.174Z,0.40
2022-11-16T08:51:21.571Z,0.40
2022-11-16T08:53:49.104Z,0.52
2022-11-16T08:56:16.661Z,0.40
2022-11-16T08:58:47.443Z,0.30
2022-11-16T09:03:40.949Z,0.30
2022-11-16T09:06:08.445Z,0.30
2022-11-16T09:08:37.695Z,0.40
2022-11-16T09:11:04.857Z,0.40
2022-11-16T09:13:31.482Z,0.30
2022-11-16T09:16:01.260Z,0.35
2022-11-16T09:18:28.501Z,0.55
2022-11-16T09:20:54.880Z,0.30
2022-11-16T09:23:25.582Z,0.40
2022-11-16T09:28:18.809Z,0.30
2022-11-16T09:30:46.198Z,0.32
2022-11-16T09:33:13.387Z,0.68
2022-11-16T09:35:40.224Z,0.32
2022-11-16T09:38:06.678Z,0.40
2022-11-16T09:40:35.281Z,0.43
2022-11-16T09:43:06.570Z,0.30
2022-11-16T09:45:38.849Z,0.60
2022-11-16T09:48:06.602Z,0.50
2022-11-16T09:50:51.635Z,0.40
2022-11-16T09:53:31.032Z,0.70
2022-11-16T09:55:59.999Z,0.88
2022-11-16T09:58:33.054Z,0.40
2022-11-16T10:01:04.110Z,0.30
2022-11-16T10:05:56.944Z,0.45
2022-11-16T10:08:40.254Z,0.63
2022-11-16T10:11:25.126Z,0.32
2022-11-16T10:14:04.031Z,0.55
2022-11-16T10:16:45.224Z,0.55
2022-11-16T10:19:34.287Z,0.50
2022-11-16T10:22:19.470Z,0.30
2022-11-16T10:24:51.070Z,0.40
2022-11-16T10:27:29.823Z,0.32
2022-11-16T10:30:00.229Z,0.40
2022-11-16T10:32:31.521Z,0.40
2022-11-16T10:35:03.468Z,0.30
2022-11-16T10:37:36.593Z,0.40
2022-11-16T10:40:13.822Z,0.40
2022-11-16T10:42:40.229Z,0.30
2022-11-16T10:45:14.048Z,0.45
2022-11-16T10:47:51.963Z,0.40
2022-11-16T10:50:26.186Z,0.40
2022-11-16T10:52:52.541Z,0.40
2022-11-16T10:55:20.749Z,0.32
2022-11-16T10:57:56.686Z,0.30
2022-11-16T11:00:34.024Z,0.35
2022-11-16T11:03:00.544Z,0.30
2022-11-16T11:05:27.048Z,0.47
2022-11-16T11:08:01.735Z,0.40
2022-11-16T11:10:28.183Z,0.30
2022-11-16T11:13:05.997Z,0.40
2022-11-16T11:15:32.570Z,0.20
2022-11-16T11:18:17.369Z,0.47
2022-11-16T11:21:02.237Z,0.40
2022-11-16T11:23:28.631Z,0.30
2022-11-16T11:25:55.019Z,0.30
2022-11-16T11:28:21.403Z,0.63
2022-11-16T11:30:52.234Z,0.40
2022-11-16T11:33:21.680Z,0.40
2022-11-16T11:35:56.070Z,0.40
2022-11-16T11:38:22.759Z,0.40
2022-11-16T11:40:59.764Z,0.40
2022-11-16T11:43:26.513Z,0.50
2022-11-16T11:46:19.253Z,0.40
2022-11-16T11:48:57.792Z,0.40
2022-11-16T11:51:34.515Z,0.30
2022-11-16T11:54:02.700Z,0.38
2022-11-16T11:56:31.871Z,0.38
2022-11-16T11:58:58.222Z,0.40
2022-11-16T12:01:30.562Z,0.65
2022-11-16T12:04:13.877Z,0.40
2022-11-16T12:06:49.355Z,0.50
2022-11-16T12:09:36.172Z,0.40
2022-11-16T12:12:14.312Z,0.47
2022-11-16T12:15:01.018Z,0.30
2022-11-16T12:17:50.678Z,0.40
2022-11-16T12:20:20.088Z,0.45
2022-11-16T12:23:05.173Z,0.73
2022-11-16T12:25:46.096Z,0.40
2022-11-16T12:28:21.578Z,0.20
2022-11-16T12:30:47.976Z,0.20
2022-11-16T12:33:14.581Z,0.50
2022-11-16T12:35:40.962Z,0.30
2022-11-16T12:38:13.224Z,0.20
2022-11-16T12:40:42.643Z,1.65
2022-11-16T12:43:08.961Z,0.30
2022-11-16T12:45:41.451Z,0.40
2022-11-16T12:48:10.779Z,0.30
2022-11-16T12:50:42.218Z,0.20
2022-11-16T12:53:27.997Z,0.30
2022-11-16T12:56:03.360Z,0.38
2022-11-16T12:58:47.980Z,0.40
2022-11-16T13:01:20.405Z,0.40
2022-11-16T13:03:55.008Z,0.45
2022-11-16T13:06:27.080Z,0.55
2022-11-16T13:09:12.256Z,0.40
2022-11-16T13:11:42.112Z,0.57
2022-11-16T13:14:12.742Z,0.32
2022-11-16T13:16:39.648Z,0.30
2022-11-16T13:19:11.640Z,0.55
2022-11-16T13:22:03.495Z,0.60
2022-11-16T13:24:33.135Z,0.40
2022-11-16T13:27:12.977Z,0.40
2022-11-16T13:29:42.414Z,0.43
2022-11-16T13:32:14.835Z,0.43
2022-11-16T13:34:41.479Z,0.40
2022-11-16T13:37:26.653Z,0.30
2022-11-16T13:39:59.227Z,0.60
2022-11-16T13:42:28.954Z,0.50
2022-11-16T13:45:05.516Z,0.30
2022-11-16T13:47:31.930Z,2.38
2022-11-16T13:50:02.445Z,0.40
2022-11-16T13:55:33.653Z,0.40
2022-11-16T13:58:01.280Z,0.40
2022-11-16T14:00:33.504Z,0.30
2022-11-16T14:03:12.000Z,0.40
2022-11-16T14:05:40.081Z,0.30
2022-11-16T14:08:18.848Z,0.40
2022-11-16T14:10:45.173Z,0.40
2022-11-16T14:13:30.113Z,0.40
2022-11-16T14:16:14.656Z,0.50
2022-11-16T14:18:41.935Z,0.55
2022-11-16T14:21:17.520Z,0.50
2022-11-16T14:23:56.403Z,0.63
2022-11-16T14:26:41.844Z,0.88
2022-11-16T14:29:20.223Z,0.73
2022-11-16T14:31:52.218Z,0.90
2022-11-16T14:34:20.482Z,0.50
2022-11-16T14:36:47.481Z,0.40
2022-11-16T14:39:37.255Z,0.60
2022-11-16T14:42:05.924Z,0.30
2022-11-16T14:44:34.071Z,0.30
2022-11-16T14:47:00.927Z,0.40
2022-11-16T14:49:27.955Z,0.30
2022-11-16T14:51:56.105Z,0.70
2022-11-16T14:54:28.574Z,0.40
2022-11-16T14:57:02.940Z,0.40
2022-11-16T14:59:30.274Z,0.50
2022-11-16T15:01:57.398Z,0.50
2022-11-16T15:04:27.506Z,0.30
2022-11-16T15:07:02.134Z,0.30
2022-11-16T15:09:36.353Z,0.43
2022-11-16T15:12:22.538Z,0.45
2022-11-16T15:14:56.561Z,0.50
2022-11-16T15:17:30.106Z,0.40
2022-11-16T15:20:05.162Z,0.40
2022-11-16T15:22:39.136Z,0.40
2022-11-16T15:25:05.684Z,0.40
2022-11-16T15:27:40.443Z,0.30
2022-11-16T15:30:20.709Z,0.32
2022-11-16T15:32:48.223Z,0.40
2022-11-16T15:35:19.892Z,0.40
2022-11-16T15:37:46.463Z,0.35
2022-11-16T15:40:13.330Z,0.40
2022-11-16T15:42:40.888Z,0.40
2022-11-16T15:45:12.950Z,0.35
2022-11-16T15:47:42.339Z,0.40
2022-11-16T15:50:15.914Z,0.32
2022-11-16T15:52:43.980Z,0.40
2022-11-16T15:55:24.256Z,0.40
2022-11-16T15:58:02.923Z,0.40
2022-11-16T16:00:29.973Z,0.60
2022-11-16T16:03:02.379Z,0.47
2022-11-16T16:05:36.727Z,0.40
2022-11-16T16:08:03.702Z,0.50
2022-11-16T16:10:30.013Z,1.15
2022-11-16T16:12:57.321Z,0.40
2022-11-16T16:15:26.876Z,0.40
2022-11-16T16:17:53.912Z,0.30
2022-11-16T16:20:21.388Z,0.60
2022-11-16T16:22:48.011Z,0.50
2022-11-16T16:25:31.032Z,0.43
2022-11-16T16:27:58.314Z,0.40
2022-11-16T16:30:24.717Z,0.50
2022-11-16T16:32:51.464Z,0.60
2022-11-16T16:35:20.874Z,0.80
2022-11-16T16:37:51.370Z,0.60
2022-11-16T16:40:17.914Z,0.50
2022-11-16T16:42:47.960Z,0.60
2022-11-16T16:45:18.036Z,0.35
2022-11-16T16:47:44.489Z,0.67
2022-11-16T16:50:11.092Z,0.90
2022-11-16T16:52:37.420Z,0.70
2022-11-16T16:55:03.983Z,0.40
2022-11-16T16:57:30.355Z,0.60
2022-11-16T16:59:56.691Z,0.98
2022-11-16T17:02:25.490Z,0.68
2022-11-16T17:04:51.857Z,0.95
2022-11-16T17:07:21.427Z,0.80
2022-11-16T17:09:47.939Z,0.52
2022-11-16T17:12:14.314Z,0.70
2022-11-16T17:14:40.664Z,0.68
2022-11-16T17:17:07.230Z,1.05
2022-11-16T17:19:33.722Z,0.60
2022-11-16T17:22:00.143Z,0.70
2022-11-16T17:24:26.888Z,0.60
2022-11-16T17:26:55.066Z,0.45
2022-11-16T17:29:21.431Z,0.50
2022-11-16T17:31:47.848Z,0.75
2022-11-16T17:34:14.595Z,0.70
2022-11-16T17:36:41.460Z,0.85
2022-11-16T17:39:07.781Z,3.00
2022-11-16T17:41:34.175Z,1.77
2022-11-16T17:44:00.812Z,1.45
2022-11-16T17:46:27.317Z,0.70
2022-11-16T17:48:53.723Z,0.50
2022-11-16T17:51:23.678Z,1.13
2022-11-16T17:53:50.209Z,0.63
2022-11-16T17:56:17.940Z,0.50
2022-11-16T17:58:45.242Z,0.40
2022-11-16T18:01:12.280Z,0.60
2022-11-16T18:03:39.155Z,0.70
2022-11-16T18:06:06.911Z,0.80
2022-11-16T18:08:33.823Z,0.75
2022-11-16T18:11:18.892Z,0.50
2022-11-16T18:13:45.610Z,0.60
2022-11-16T18:16:11.929Z,0.47
2022-11-16T18:18:38.532Z,0.70
2022-11-16T18:21:05.463Z,0.68
2022-11-16T18:23:33.204Z,0.40
2022-11-16T18:26:03.205Z,0.55
2022-11-16T18:28:30.265Z,0.55
2022-11-16T18:31:04.010Z,0.50
2022-11-16T18:33:30.685Z,0.80
2022-11-16T18:35:57.190Z,0.50
2022-11-16T18:38:23.588Z,0.60
2022-11-16T18:41:13.233Z,0.60
2022-11-16T18:43:39.546Z,0.60
2022-11-16T18:46:05.920Z,0.70
2022-11-16T18:48:32.278Z,0.60
2022-11-16T18:50:59.225Z,0.60
2022-11-16T18:53:26.056Z,0.60
2022-11-16T18:55:57.690Z,0.50
2022-11-16T18:58:49.373Z,1.33
2022-11-16T19:01:12.824Z,0.80
2022-11-16T19:03:39.407Z,0.55
2022-11-16T19:06:10.087Z,0.80
2022-11-16T19:08:37.373Z,0.80
2022-11-16T19:11:07.930Z,0.88
2022-11-16T19:13:34.583Z,0.68
2022-11-16T19:16:01.555Z,1.10
2022-11-16T19:18:28.107Z,1.00
2022-11-16T19:21:14.004Z,1.10
2022-11-16T19:23:42.820Z,1.27
2022-11-16T19:26:09.721Z,1.30
2022-11-16T19:28:37.038Z,1.10
2022-11-16T19:31:07.483Z,0.90
2022-11-16T19:33:34.287Z,0.70
2022-11-16T19:36:05.644Z,0.65
2022-11-16T19:38:31.988Z,0.70
2022-11-16T19:40:58.347Z,0.90
2022-11-16T19:43:24.763Z,0.80
2022-11-16T19:45:51.128Z,0.75
2022-11-16T19:48:17.463Z,0.85
2022-11-16T19:50:43.848Z,0.93
2022-11-16T19:53:10.194Z,0.88
2022-11-16T19:55:36.564Z,0.90
2022-11-16T19:58:02.985Z,0.82
2022-11-16T20:00:29.340Z,0.60
2022-11-16T20:02:57.221Z,0.75
2022-11-16T20:05:25.124Z,0.60
2022-11-16T20:07:51.494Z,0.60
2022-11-16T20:10:17.951Z,0.90
2022-11-16T20:12:44.338Z,1.08
2022-11-16T20:15:10.721Z,1.00
2022-11-16T20:17:37.060Z,1.00
2022-11-16T20:20:03.548Z,0.82
2022-11-16T20:22:29.952Z,0.63
2022-11-16T20:24:56.308Z,0.75
2022-11-16T20:27:22.719Z,0.80
2022-11-16T20:29:49.053Z,0.70
2022-11-16T20:32:15.404Z,0.80
2022-11-16T20:34:41.728Z,0.90
2022-11-16T20:37:08.631Z,0.88
2022-11-16T20:39:35.374Z,0.80
2022-11-16T20:42:01.712Z,0.80
2022-11-16T20:44:28.097Z,0.68
2022-11-16T20:46:54.448Z,0.60
2022-11-16T20:49:20.954Z,0.55
2022-11-16T20:51:48.400Z,0.60
2022-11-16T20:54:15.097Z,0.80
2022-11-16T20:56:41.516Z,0.55
2022-11-16T20:59:07.891Z,0.60
2022-11-16T21:01:34.769Z,0.93
2022-11-16T21:04:02.544Z,1.05
2022-11-16T21:06:29.341Z,0.80
2022-11-16T21:08:56.092Z,0.80
2022-11-16T21:11:25.002Z,0.60
2022-11-16T21:14:10.404Z,0.50
2022-11-16T21:16:40.219Z,0.60
2022-11-16T21:19:06.806Z,0.65
2022-11-16T21:21:33.378Z,0.57
2022-11-16T21:23:59.872Z,0.50
2022-11-16T21:26:30.006Z,0.57
2022-11-16T21:28:56.744Z,0.50
2022-11-16T21:31:27.282Z,0.50
2022-11-16T21:33:54.198Z,0.63
2022-11-16T21:36:21.556Z,0.65
2022-11-16T21:38:47.896Z,0.55
2022-11-16T21:41:15.365Z,0.60
2022-11-16T21:43:41.997Z,0.50
2022-11-16T21:46:10.778Z,0.40
2022-11-16T21:48:37.660Z,0.60
2022-11-16T21:51:04.056Z,0.63
2022-11-16T21:53:30.566Z,0.85
2022-11-16T21:55:57.053Z,0.90
2022-11-16T21:58:23.671Z,1.75
2022-11-16T22:00:50.127Z,1.00
2022-11-16T22:03:16.464Z,1.10
2022-11-16T22:06:01.458Z,1.00
2022-11-16T22:08:27.914Z,0.88
2022-11-16T22:10:54.252Z,1.40
2022-11-16T22:13:20.786Z,0.90
2022-11-16T22:15:47.302Z,0.90
2022-11-16T22:18:16.732Z,0.90
2022-11-16T22:20:46.268Z,1.23
2022-11-16T22:23:12.650Z,1.33
2022-11-16T22:25:39.008Z,1.23
2022-11-16T22:28:20.251Z,1.08
2022-11-16T22:30:51.382Z,1.10
2022-11-16T22:33:18.470Z,1.10
2022-11-16T22:35:46.546Z,1.08
2022-11-16T22:38:12.854Z,1.00
2022-11-16T22:40:39.207Z,1.10
2022-11-16T22:43:05.515Z,1.00
2022-11-16T22:45:31.846Z,1.17
2022-11-16T22:47:58.234Z,1.23
2022-11-16T22:50:24.920Z,1.83
2022-11-16T22:52:51.285Z,2.00
2022-11-16T22:55:17.610Z,1.85
2022-11-16T22:57:43.958Z,1.73
2022-11-16T23:00:13.194Z,1.55
2022-11-16T23:02:39.612Z,1.30
2022-11-16T23:05:06.088Z,1.70
2022-11-16T23:07:32.441Z,1.60
2022-11-16T23:09:58.790Z,1.13
2022-11-16T23:12:43.960Z,0.90
2022-11-16T23:15:32.211Z,1.05
2022-11-16T23:17:58.606Z,1.10
2022-11-16T23:20:43.591Z,0.95
2022-11-16T23:23:36.192Z,1.05
2022-11-16T23:26:23.894Z,1.00
2022-11-16T23:28:50.306Z,0.82
2022-11-16T23:31:19.520Z,1.10
2022-11-16T23:33:46.106Z,0.80
2022-11-16T23:36:12.570Z,0.80
2022-11-16T23:38:39.269Z,0.90
2022-11-16T23:41:24.592Z,1.20
2022-11-16T23:44:00.258Z,2.65
2022-11-16T23:46:27.890Z,2.00
2022-11-16T23:48:54.447Z,1.70
2022-11-16T23:51:23.237Z,1.17
2022-11-16T23:53:53.094Z,1.58
2022-11-16T23:56:22.480Z,0.90
2022-11-16T23:58:48.901Z,1.20
